Time;durP1;ratioP1;P1;durP2;ratioP2;P2;SDS_P1;SDS_P2;PMS_P1;PMS_P2;Temp;Humidity;BMP_temperature;BMP_pressure;BME280_temperature;BME280_humidity;BME280_pressure;Samples;Min_cycle;Max_cycle;Signal;HPM_P1;HPM_P2
2022/03/07 00:01:14;;;;;;;8.75;5.72;;;2.60;99.90;;;;;;5014488;28;20064;-60
2022/03/07 00:03:40;;;;;;;12.35;5.93;;;2.50;99.90;;;;;;5014461;28;20041;-60
2022/03/07 00:06:05;;;;;;;10.60;6.47;;;2.50;99.90;;;;;;5014064;28;20075;-62
2022/03/07 00:08:31;;;;;;;8.27;5.70;;;2.40;99.90;;;;;;5013680;28;20034;-60
2022/03/07 00:10:57;;;;;;;9.00;5.85;;;2.30;99.90;;;;;;5052025;28;20110;-60
2022/03/07 00:13:23;;;;;;;8.80;6.18;;;2.30;99.90;;;;;;5053998;28;20060;-61
2022/03/07 00:15:49;;;;;;;8.55;6.03;;;2.20;99.90;;;;;;5053874;28;20501;-60
2022/03/07 00:18:15;;;;;;;11.88;7.22;;;2.10;99.90;;;;;;5035909;28;20130;-60
2022/03/07 00:20:41;;;;;;;12.10;6.18;;;2.10;99.90;;;;;;5037286;28;20083;-60
2022/03/07 00:23:07;;;;;;;10.48;7.40;;;2.10;99.90;;;;;;5033968;28;20076;-61
2022/03/07 00:25:32;;;;;;;10.35;6.57;;;2.10;99.90;;;;;;5033772;28;20068;-60
2022/03/07 00:27:58;;;;;;;9.32;6.80;;;2.10;99.90;;;;;;5033348;28;20044;-60
2022/03/07 00:30:24;;;;;;;9.98;6.85;;;2.10;99.90;;;;;;5047411;28;20037;-60
2022/03/07 00:32:49;;;;;;;11.10;7.00;;;2.10;99.90;;;;;;5053343;28;20041;-60
2022/03/07 00:35:16;;;;;;;11.35;6.72;;;2.10;99.90;;;;;;5055181;28;20041;-60
2022/03/07 00:37:42;;;;;;;10.95;7.45;;;2.10;99.90;;;;;;5039922;28;20378;-60
2022/03/07 00:40:09;;;;;;;9.27;6.57;;;2.00;99.90;;;;;;5045627;28;20048;-61
2022/03/07 00:42:37;;;;;;;10.05;7.32;;;2.00;99.90;;;;;;5037467;28;20490;-60
2022/03/07 00:45:06;;;;;;;12.80;7.22;;;2.00;99.90;;;;;;5037349;28;20389;-61
2022/03/07 00:47:31;;;;;;;10.85;7.75;;;2.00;99.90;;;;;;5037443;28;20029;-60
2022/03/07 00:49:57;;;;;;;11.30;7.93;;;2.00;99.90;;;;;;5037893;28;20034;-61
2022/03/07 00:52:22;;;;;;;11.05;7.10;;;2.00;99.90;;;;;;5037606;28;20034;-60
2022/03/07 00:54:48;;;;;;;10.88;7.28;;;1.90;99.90;;;;;;5037590;28;20044;-61
2022/03/07 00:57:14;;;;;;;9.70;7.05;;;1.90;99.90;;;;;;5037496;28;20111;-60
2022/03/07 00:59:39;;;;;;;10.35;6.80;;;1.90;99.90;;;;;;5044462;28;20052;-60
2022/03/07 01:02:05;;;;;;;9.75;6.97;;;1.90;99.90;;;;;;5057085;28;20040;-59
2022/03/07 01:04:30;;;;;;;11.02;7.47;;;1.80;99.90;;;;;;5057281;28;20045;-60
2022/03/07 01:06:56;;;;;;;10.50;7.32;;;1.80;99.90;;;;;;5039168;28;20053;-61
2022/03/07 01:09:22;;;;;;;10.48;7.30;;;1.80;99.90;;;;;;5051279;28;20347;-61
2022/03/07 01:11:48;;;;;;;9.63;7.13;;;1.80;99.90;;;;;;5037201;28;20095;-60
2022/03/07 01:14:13;;;;;;;12.57;7.40;;;1.70;99.90;;;;;;5037247;28;20114;-60
2022/03/07 01:16:39;;;;;;;10.10;7.40;;;1.70;99.90;;;;;;5037083;28;20458;-60
2022/03/07 01:19:05;;;;;;;11.23;7.47;;;1.70;99.90;;;;;;5039220;28;20033;-60
2022/03/07 01:21:30;;;;;;;11.52;7.32;;;1.70;99.90;;;;;;5057046;28;20037;-60
2022/03/07 01:23:56;;;;;;;10.27;6.88;;;1.70;99.90;;;;;;5057110;28;20374;-60
2022/03/07 01:26:22;;;;;;;11.98;7.43;;;1.70;99.90;;;;;;5056831;28;20029;-60
2022/03/07 01:28:47;;;;;;;11.98;7.32;;;1.70;99.90;;;;;;5056002;28;20055;-61
2022/03/07 01:31:13;;;;;;;10.52;7.05;;;1.60;99.90;;;;;;5036643;28;20033;-60
2022/03/07 01:33:39;;;;;;;9.98;6.85;;;1.60;99.90;;;;;;5036888;28;20056;-60
2022/03/07 01:36:05;;;;;;;10.90;7.50;;;1.60;99.90;;;;;;5036708;28;20045;-60
2022/03/07 01:38:30;;;;;;;13.75;7.57;;;1.60;99.90;;;;;;5036477;28;20401;-60
2022/03/07 01:40:56;;;;;;;9.80;6.97;;;1.60;99.90;;;;;;5054299;28;20091;-60
2022/03/07 01:43:23;;;;;;;10.02;7.07;;;1.50;99.90;;;;;;5056574;28;20049;-61
2022/03/07 01:45:48;;;;;;;10.75;6.93;;;1.50;99.90;;;;;;5056530;28;20040;-60
2022/03/07 01:48:14;;;;;;;12.82;7.57;;;1.50;99.90;;;;;;5055386;28;20047;-59
2022/03/07 01:50:40;;;;;;;9.73;6.90;;;1.50;99.90;;;;;;5040765;28;20037;-60
2022/03/07 01:53:05;;;;;;;12.02;7.57;;;1.40;99.90;;;;;;5036488;28;20103;-60
2022/03/07 01:55:31;;;;;;;8.98;6.88;;;1.40;99.90;;;;;;5036428;28;20065;-60
2022/03/07 01:57:57;;;;;;;11.20;8.07;;;1.40;99.90;;;;;;5035823;28;20037;-60
2022/03/07 02:00:27;;;;;;;9.32;6.95;;;1.40;99.90;;;;;;5049206;28;20402;-60
2022/03/07 02:02:54;;;;;;;10.90;7.55;;;1.40;99.90;;;;;;5056173;28;20362;-60
2022/03/07 02:05:19;;;;;;;9.77;7.65;;;1.40;99.90;;;;;;5055588;28;20052;-61
2022/03/07 02:07:45;;;;;;;11.00;7.53;;;1.30;99.90;;;;;;5055407;28;20087;-60
2022/03/07 02:10:11;;;;;;;10.75;7.30;;;1.30;99.90;;;;;;5044462;28;20125;-60
2022/03/07 02:12:37;;;;;;;10.13;7.07;;;1.30;99.90;;;;;;5036130;28;20034;-60
2022/03/07 02:15:05;;;;;;;11.00;8.10;;;1.20;99.90;;;;;;5036120;28;20041;-60
2022/03/07 02:17:31;;;;;;;13.52;8.25;;;1.20;99.90;;;;;;5035558;28;20382;-60
2022/03/07 02:19:56;;;;;;;11.20;8.07;;;1.20;99.90;;;;;;5044791;28;20049;-60
2022/03/07 02:22:23;;;;;;;10.93;7.53;;;1.20;99.90;;;;;;5055888;28;20076;-60
2022/03/07 02:24:49;;;;;;;13.38;7.68;;;1.20;99.90;;;;;;5055649;28;20037;-61
2022/03/07 02:27:18;;;;;;;11.90;7.78;;;1.20;99.90;;;;;;5055530;28;20041;-60
2022/03/07 02:29:44;;;;;;;11.05;7.65;;;1.20;99.90;;;;;;5047534;28;20044;-60
2022/03/07 02:32:10;;;;;;;11.48;8.23;;;1.20;99.90;;;;;;5035281;28;20451;-60
2022/03/07 02:34:36;;;;;;;11.60;7.88;;;1.20;99.90;;;;;;5035725;28;20037;-60
2022/03/07 02:37:02;;;;;;;13.20;8.00;;;1.20;99.90;;;;;;5035619;28;20065;-60
2022/03/07 02:39:27;;;;;;;11.32;7.80;;;1.10;99.90;;;;;;5040241;28;20060;-60
2022/03/07 02:41:54;;;;;;;10.30;7.88;;;1.10;99.90;;;;;;5055440;28;20051;-60
2022/03/07 02:44:20;;;;;;;11.70;7.82;;;1.00;99.90;;;;;;5055415;28;20063;-61
2022/03/07 02:46:45;;;;;;;11.85;8.25;;;1.00;99.90;;;;;;5055307;28;20366;-59
2022/03/07 02:49:11;;;;;;;12.18;8.02;;;1.00;99.90;;;;;;5051629;28;20025;-60
2022/03/07 02:51:36;;;;;;;14.02;8.95;;;1.10;99.90;;;;;;5035360;28;20112;-60
2022/03/07 02:54:02;;;;;;;12.77;7.95;;;1.10;99.90;;;;;;5034969;28;20037;-60
2022/03/07 02:56:28;;;;;;;11.82;8.15;;;1.00;99.90;;;;;;5035420;28;20409;-62
2022/03/07 02:58:54;;;;;;;13.13;7.75;;;1.00;99.90;;;;;;5033954;28;20037;-60
2022/03/07 03:01:20;;;;;;;12.18;8.15;;;1.00;99.90;;;;;;5055016;28;20059;-61
2022/03/07 03:03:45;;;;;;;11.35;7.60;;;1.00;99.90;;;;;;5054777;28;20454;-60
2022/03/07 03:06:11;;;;;;;10.75;8.00;;;1.00;99.90;;;;;;5036939;28;20128;-60
2022/03/07 03:08:37;;;;;;;10.35;7.70;;;1.00;99.90;;;;;;5054140;28;20067;-59
2022/03/07 03:11:03;;;;;;;10.57;7.97;;;1.00;99.90;;;;;;5036647;28;20037;-60
2022/03/07 03:13:29;;;;;;;12.93;8.18;;;0.90;99.90;;;;;;5034809;28;20033;-60
2022/03/07 03:15:55;;;;;;;11.80;8.35;;;0.90;99.90;;;;;;5017171;28;20037;-59
2022/03/07 03:18:22;;;;;;;11.95;7.93;;;0.90;99.90;;;;;;5034507;28;20069;-60
2022/03/07 03:20:54;;;;;;;13.88;8.52;;;0.90;99.90;;;;;;5091153;28;20766;-58
2022/03/07 03:23:22;;;;;;;9.80;7.55;;;0.80;99.90;;;;;;5091260;28;20102;-59
2022/03/07 03:25:48;;;;;;;11.20;7.90;;;0.80;99.90;;;;;;5091617;28;20044;-58
2022/03/07 03:28:14;;;;;;;11.23;7.18;;;0.70;99.90;;;;;;5091198;28;20040;-59
2022/03/07 03:30:39;;;;;;;10.23;7.82;;;0.70;99.90;;;;;;5090866;28;20051;-59
2022/03/07 03:33:05;;;;;;;9.20;7.28;;;0.70;99.90;;;;;;5091374;28;20044;-58
2022/03/07 03:35:31;;;;;;;12.40;7.97;;;0.60;99.90;;;;;;5091059;28;20094;-58
2022/03/07 03:37:57;;;;;;;10.80;7.30;;;0.50;99.90;;;;;;5090699;28;20044;-58
2022/03/07 03:40:23;;;;;;;12.32;7.88;;;0.50;99.90;;;;;;5091001;28;20097;-58
2022/03/07 03:42:48;;;;;;;11.50;7.82;;;0.40;99.90;;;;;;5091261;28;20044;-59
2022/03/07 03:45:14;;;;;;;13.63;8.55;;;0.40;99.90;;;;;;5090883;28;20032;-59
2022/03/07 03:47:42;;;;;;;11.43;7.97;;;0.40;99.90;;;;;;5090604;28;20040;-59
2022/03/07 03:50:10;;;;;;;13.00;8.40;;;0.30;99.90;;;;;;5090781;28;20036;-59
2022/03/07 03:52:36;;;;;;;11.93;8.60;;;0.30;99.90;;;;;;5091026;28;20104;-58
2022/03/07 03:55:04;;;;;;;15.40;8.43;;;0.30;99.90;;;;;;5090617;28;20496;-58
2022/03/07 03:57:30;;;;;;;13.00;8.38;;;0.30;99.90;;;;;;5090868;28;20173;-59
2022/03/07 03:59:56;;;;;;;14.02;8.73;;;0.30;99.90;;;;;;5090465;28;20123;-58
2022/03/07 04:02:21;;;;;;;11.52;8.05;;;0.30;99.90;;;;;;5089226;28;20037;-59
2022/03/07 04:04:47;;;;;;;12.30;8.70;;;0.30;99.90;;;;;;5090736;28;20082;-58
2022/03/07 04:07:13;;;;;;;13.43;9.57;;;0.30;99.90;;;;;;5090409;28;20048;-59
2022/03/07 04:09:39;;;;;;;15.80;9.43;;;0.30;99.90;;;;;;5090103;28;20047;-58
2022/03/07 04:12:05;;;;;;;13.15;9.65;;;0.30;99.90;;;;;;5090681;28;20063;-59
2022/03/07 04:14:31;;;;;;;14.70;9.27;;;0.40;99.90;;;;;;5090155;28;20380;-59
2022/03/07 04:16:57;;;;;;;14.05;9.68;;;0.40;99.90;;;;;;5090388;28;20119;-58
2022/03/07 04:19:22;;;;;;;13.45;9.13;;;0.40;99.90;;;;;;5074053;28;20090;-59
2022/03/07 04:21:48;;;;;;;15.68;10.13;;;0.30;99.90;;;;;;5090182;28;20123;-58
2022/03/07 04:24:14;;;;;;;14.82;9.57;;;0.30;99.90;;;;;;5090433;28;20047;-61
2022/03/07 04:26:42;;;;;;;15.15;9.35;;;0.30;99.90;;;;;;5090067;28;20360;-59
2022/03/07 04:29:09;;;;;;;14.32;8.73;;;0.30;99.90;;;;;;5089648;28;20044;-59
2022/03/07 04:31:40;;;;;;;12.50;8.40;;;0.30;99.90;;;;;;5080554;28;20055;-58
2022/03/07 04:34:07;;;;;;;13.35;8.68;;;0.30;99.90;;;;;;5076737;28;20047;-58
2022/03/07 04:36:35;;;;;;;13.60;8.85;;;0.30;99.90;;;;;;5076693;28;20048;-59
2022/03/07 04:39:00;;;;;;;15.05;8.93;;;0.30;99.90;;;;;;5075947;28;20032;-59
2022/03/07 04:41:27;;;;;;;10.68;8.38;;;0.30;99.90;;;;;;5076701;28;20431;-59
2022/03/07 04:43:53;;;;;;;14.15;8.90;;;0.30;99.90;;;;;;5076640;28;20051;-59
2022/03/07 04:46:18;;;;;;;12.13;8.38;;;0.30;99.90;;;;;;5076362;28;20040;-59
2022/03/07 04:48:44;;;;;;;12.45;9.55;;;0.30;99.90;;;;;;5076198;28;20465;-59
2022/03/07 04:51:10;;;;;;;14.05;8.30;;;0.30;99.90;;;;;;5076086;28;20146;-59
2022/03/07 04:53:35;;;;;;;12.07;9.18;;;0.30;99.90;;;;;;5075444;28;20106;-58
2022/03/07 04:56:01;;;;;;;16.25;9.35;;;0.30;99.90;;;;;;5076332;28;20449;-59
2022/03/07 04:58:27;;;;;;;14.88;10.20;;;0.40;99.90;;;;;;5076107;28;20170;-59
2022/03/07 05:00:54;;;;;;;14.75;9.90;;;0.40;99.90;;;;;;5075512;28;20114;-59
2022/03/07 05:03:21;;;;;;;12.20;9.07;;;0.50;99.90;;;;;;5076307;28;20040;-59
2022/03/07 05:05:47;;;;;;;14.73;10.07;;;0.50;99.90;;;;;;5075297;28;20075;-58
2022/03/07 05:08:12;;;;;;;15.43;9.82;;;0.50;99.90;;;;;;5075717;28;20365;-58
2022/03/07 05:10:38;;;;;;;15.20;9.70;;;0.40;99.90;;;;;;5075623;28;20055;-58
2022/03/07 05:13:03;;;;;;;15.38;9.60;;;0.30;99.90;;;;;;5075783;28;20036;-59
2022/03/07 05:15:29;;;;;;;13.50;8.82;;;0.30;99.90;;;;;;5075586;28;20052;-59
2022/03/07 05:17:55;;;;;;;15.13;10.30;;;0.30;99.90;;;;;;5075606;28;20051;-58
2022/03/07 05:20:22;;;;;;;16.92;10.00;;;0.30;99.90;;;;;;5075057;28;20134;-58
2022/03/07 05:22:48;;;;;;;15.68;10.50;;;0.30;99.90;;;;;;5075956;28;20045;-61
2022/03/07 05:25:15;;;;;;;14.40;10.15;;;0.30;99.90;;;;;;5074385;28;20461;-61
2022/03/07 05:27:41;;;;;;;16.45;11.48;;;0.30;99.90;;;;;;5075162;28;20702;-61
2022/03/07 05:30:09;;;;;;;16.60;11.13;;;0.30;99.90;;;;;;5075396;28;20048;-60
2022/03/07 05:32:35;;;;;;;14.82;10.32;;;0.40;99.90;;;;;;5063365;28;20037;-61
2022/03/07 05:35:06;;;;;;;13.23;10.13;;;0.30;99.90;;;;;;5054538;28;20046;-61
2022/03/07 05:37:32;;;;;;;14.25;9.75;;;0.30;99.90;;;;;;5054494;28;20056;-60
2022/03/07 05:39:58;;;;;;;14.35;9.48;;;0.30;99.90;;;;;;5056577;28;20126;-61
2022/03/07 05:42:23;;;;;;;15.32;10.60;;;0.30;99.90;;;;;;5053665;28;20051;-59
2022/03/07 05:44:49;;;;;;;12.80;9.93;;;0.40;99.90;;;;;;5054833;28;20037;-60
2022/03/07 05:47:14;;;;;;;15.20;10.20;;;0.40;99.90;;;;;;5054695;28;20535;-61
2022/03/07 05:49:40;;;;;;;14.57;10.48;;;0.40;99.90;;;;;;5060468;28;20458;-60
2022/03/07 05:52:06;;;;;;;14.38;10.27;;;0.50;99.90;;;;;;5073984;28;20044;-59
2022/03/07 05:54:31;;;;;;;13.40;9.93;;;0.50;99.90;;;;;;5075190;28;20365;-59
2022/03/07 05:56:57;;;;;;;12.18;9.52;;;0.50;99.90;;;;;;5059269;28;20044;-59
2022/03/07 05:59:23;;;;;;;17.13;10.88;;;0.40;99.90;;;;;;5055865;28;20046;-59
2022/03/07 06:01:49;;;;;;;13.57;9.93;;;0.40;99.90;;;;;;5054598;28;20698;-59
2022/03/07 06:04:15;;;;;;;14.40;9.60;;;0.40;99.90;;;;;;5054448;28;20028;-58
2022/03/07 06:06:40;;;;;;;14.25;10.88;;;0.40;99.90;;;;;;5056264;28;20454;-59
2022/03/07 06:09:06;;;;;;;13.55;10.45;;;0.30;99.90;;;;;;5055130;28;20045;-59
2022/03/07 06:11:33;;;;;;;15.25;10.45;;;0.30;99.90;;;;;;5074067;28;20103;-58
2022/03/07 06:13:58;;;;;;;13.48;10.30;;;0.30;99.90;;;;;;5073921;28;20086;-59
2022/03/07 06:16:24;;;;;;;13.10;9.90;;;0.30;99.90;;;;;;5053680;28;20420;-60
2022/03/07 06:18:49;;;;;;;14.27;10.35;;;0.30;99.90;;;;;;5062001;28;20485;-58
2022/03/07 06:21:15;;;;;;;12.40;10.10;;;0.30;99.90;;;;;;5062507;28;20086;-58
2022/03/07 06:23:42;;;;;;;14.50;9.43;;;0.30;99.90;;;;;;5054388;28;20469;-58
2022/03/07 06:26:08;;;;;;;17.05;9.90;;;0.30;99.90;;;;;;5063697;28;20032;-59
2022/03/07 06:28:34;;;;;;;13.13;10.82;;;0.40;99.90;;;;;;5054950;28;20040;-58
2022/03/07 06:31:00;;;;;;;14.00;11.05;;;0.40;99.90;;;;;;5070684;28;20408;-57
2022/03/07 06:33:26;;;;;;;13.43;10.43;;;0.40;99.90;;;;;;5056325;28;20045;-59
2022/03/07 06:35:52;;;;;;;13.30;10.40;;;0.50;99.90;;;;;;5060387;28;20078;-58
2022/03/07 06:38:19;;;;;;;13.20;9.77;;;0.50;99.90;;;;;;5066598;28;20029;-58
2022/03/07 06:40:45;;;;;;;12.93;10.57;;;0.60;99.90;;;;;;5068352;28;20098;-59
2022/03/07 06:43:11;;;;;;;13.55;10.50;;;0.70;99.90;;;;;;5074327;28;20041;-60
2022/03/07 06:45:37;;;;;;;14.02;11.05;;;0.80;99.90;;;;;;5059007;28;20095;-59
2022/03/07 06:48:03;;;;;;;12.45;10.43;;;0.80;99.90;;;;;;5053766;28;20051;-59
2022/03/07 06:50:29;;;;;;;14.43;11.65;;;0.90;99.90;;;;;;5066349;28;20358;-59
2022/03/07 06:52:55;;;;;;;13.23;11.38;;;1.00;99.90;;;;;;5054476;28;20106;-59
2022/03/07 06:55:21;;;;;;;16.58;11.23;;;1.10;99.90;;;;;;5053454;28;20029;-58
2022/03/07 06:57:47;;;;;;;14.68;11.20;;;1.30;99.90;;;;;;5052848;28;20098;-58
2022/03/07 07:00:15;;;;;;;15.15;11.73;;;1.40;99.90;;;;;;5063613;28;20029;-59
2022/03/07 07:02:42;;;;;;;13.43;10.82;;;1.50;99.90;;;;;;5070879;28;20048;-61
2022/03/07 07:05:09;;;;;;;15.80;11.90;;;1.70;99.90;;;;;;5053429;28;20107;-59
2022/03/07 07:07:35;;;;;;;14.52;11.13;;;1.70;99.90;;;;;;5052374;28;20089;-59
2022/03/07 07:10:02;;;;;;;15.02;11.45;;;1.70;99.90;;;;;;5055102;28;20032;-59
2022/03/07 07:12:28;;;;;;;14.50;11.18;;;1.80;99.90;;;;;;5052318;28;20059;-60
2022/03/07 07:14:53;;;;;;;14.52;10.95;;;1.90;99.90;;;;;;5052299;28;20037;-59
2022/03/07 07:17:19;;;;;;;15.00;11.70;;;1.90;99.90;;;;;;5052214;28;20039;-59
2022/03/07 07:19:44;;;;;;;15.30;12.23;;;1.90;99.90;;;;;;5052886;28;20385;-59
2022/03/07 07:22:10;;;;;;;16.08;11.95;;;1.90;99.90;;;;;;5051916;28;20151;-59
2022/03/07 07:24:37;;;;;;;16.38;12.80;;;2.00;99.90;;;;;;5052985;28;20051;-60
2022/03/07 07:27:04;;;;;;;17.13;12.32;;;2.10;99.90;;;;;;5052349;28;20033;-59
2022/03/07 07:29:30;;;;;;;20.33;13.55;;;2.20;99.90;;;;;;5055018;28;21217;-59
2022/03/07 07:31:56;;;;;;;16.83;13.00;;;2.30;99.90;;;;;;5051873;28;20040;-59
2022/03/07 07:34:22;;;;;;;18.08;13.10;;;2.30;99.90;;;;;;5053085;28;20044;-59
2022/03/07 07:36:48;;;;;;;20.17;12.82;;;2.40;99.90;;;;;;5056035;28;20107;-59
2022/03/07 07:39:14;;;;;;;19.30;13.70;;;2.50;99.90;;;;;;5055057;28;20111;-60
2022/03/07 07:41:40;;;;;;;19.33;13.70;;;2.50;99.90;;;;;;5073463;28;20115;-60
2022/03/07 07:44:06;;;;;;;20.63;12.32;;;2.50;99.90;;;;;;5073335;28;20087;-59
2022/03/07 07:46:31;;;;;;;17.45;12.95;;;2.50;99.90;;;;;;5073194;28;20047;-59
2022/03/07 07:48:57;;;;;;;16.25;12.70;;;2.60;99.90;;;;;;5073262;28;20076;-60
2022/03/07 07:51:23;;;;;;;16.48;12.52;;;2.70;99.90;;;;;;5073206;28;20037;-59
2022/03/07 07:53:48;;;;;;;14.75;11.63;;;2.80;99.90;;;;;;5073174;28;20730;-60
2022/03/07 07:56:14;;;;;;;16.48;12.05;;;2.90;99.90;;;;;;5073436;28;20036;-59
2022/03/07 07:58:40;;;;;;;15.60;11.48;;;2.90;99.90;;;;;;5073450;28;20090;-60
2022/03/07 08:01:06;;;;;;;15.90;11.13;;;2.90;99.90;;;;;;5073019;28;20469;-59
2022/03/07 08:03:32;;;;;;;14.52;9.95;;;3.00;99.90;;;;;;5073002;28;20059;-60
2022/03/07 08:05:58;;;;;;;15.52;10.07;;;3.10;99.90;;;;;;5074297;28;20036;-59
2022/03/07 08:08:27;;;;;;;16.92;9.80;;;3.10;99.90;;;;;;5076620;28;20029;-60
2022/03/07 08:10:53;;;;;;;12.40;8.98;;;3.30;99.90;;;;;;5071559;28;20044;-59
2022/03/07 08:13:18;;;;;;;15.65;8.82;;;3.30;99.90;;;;;;5075243;28;20044;-59
2022/03/07 08:15:44;;;;;;;15.60;9.88;;;3.50;99.90;;;;;;5076631;28;20044;-60
2022/03/07 08:18:09;;;;;;;14.32;8.65;;;3.60;99.90;;;;;;5076745;28;20740;-60
2022/03/07 08:20:36;;;;;;;14.25;7.70;;;3.70;99.90;;;;;;5076137;28;20048;-60
2022/03/07 08:23:02;;;;;;;13.00;8.48;;;3.80;99.90;;;;;;5076573;28;20040;-60
2022/03/07 08:25:27;;;;;;;17.13;8.70;;;3.80;99.90;;;;;;5076823;28;20044;-59
2022/03/07 08:27:54;;;;;;;21.63;9.57;;;3.90;99.90;;;;;;5076243;28;20040;-58
2022/03/07 08:30:22;;;;;;;14.82;8.93;;;3.90;99.90;;;;;;5065490;28;20048;-61
2022/03/07 08:32:47;;;;;;;12.00;7.35;;;4.00;99.90;;;;;;5072369;28;20583;-60
2022/03/07 08:35:13;;;;;;;13.10;7.68;;;4.10;99.90;;;;;;5076114;28;20123;-60
2022/03/07 08:37:44;;;;;;;15.38;8.60;;;4.10;99.90;;;;;;5074813;28;20052;-59
2022/03/07 08:40:10;;;;;;;15.50;8.10;;;4.10;99.90;;;;;;5074765;28;20126;-59
2022/03/07 08:42:36;;;;;;;12.55;7.82;;;4.20;99.90;;;;;;5076451;28;20028;-60
2022/03/07 08:45:03;;;;;;;16.92;8.48;;;4.30;99.90;;;;;;5070044;28;20531;-60
2022/03/07 08:47:28;;;;;;;11.48;8.07;;;4.40;99.90;;;;;;5056550;28;20029;-59
2022/03/07 08:49:56;;;;;;;12.88;8.40;;;4.40;99.90;;;;;;5062890;28;20052;-60
2022/03/07 08:52:21;;;;;;;13.85;8.40;;;4.40;99.90;;;;;;5076194;28;20051;-60
2022/03/07 08:54:47;;;;;;;10.82;8.23;;;4.50;99.90;;;;;;5076417;28;20044;-60
2022/03/07 08:57:14;;;;;;;12.20;8.70;;;4.60;99.90;;;;;;5076021;28;20473;-60
2022/03/07 08:59:40;;;;;;;12.60;7.50;;;4.60;99.90;;;;;;5076146;28;20075;-60
2022/03/07 09:02:06;;;;;;;13.43;7.80;;;4.70;99.90;;;;;;5075915;28;20044;-60
2022/03/07 09:04:32;;;;;;;13.27;7.57;;;4.70;99.90;;;;;;5076269;28;20115;-60
2022/03/07 09:06:58;;;;;;;10.93;7.15;;;4.80;99.90;;;;;;5076262;28;20120;-59
2022/03/07 09:09:23;;;;;;;10.23;8.13;;;5.00;99.90;;;;;;5075968;28;20072;-59
2022/03/07 09:11:49;;;;;;;10.68;8.27;;;5.00;99.90;;;;;;5075604;28;20471;-60
2022/03/07 09:14:15;;;;;;;9.63;7.45;;;5.10;99.90;;;;;;5074833;28;20457;-59
2022/03/07 09:16:42;;;;;;;10.88;7.50;;;5.10;99.90;;;;;;5075685;28;20068;-61
2022/03/07 09:19:07;;;;;;;9.80;6.70;;;5.30;99.90;;;;;;5075389;28;20040;-59
2022/03/07 09:21:33;;;;;;;10.13;7.28;;;5.30;99.90;;;;;;5075273;28;20098;-60
2022/03/07 09:23:59;;;;;;;10.07;6.47;;;5.50;99.90;;;;;;5075581;28;20040;-60
2022/03/07 09:26:24;;;;;;;10.65;6.90;;;5.70;99.90;;;;;;5075559;28;20040;-60
2022/03/07 09:28:50;;;;;;;11.48;7.20;;;5.90;99.90;;;;;;5061204;28;20029;-59
2022/03/07 09:31:19;;;;;;;10.13;6.72;;;5.80;99.90;;;;;;5072831;28;20403;-60
2022/03/07 09:33:45;;;;;;;9.95;6.65;;;5.90;99.90;;;;;;5075348;28;20100;-60
2022/03/07 09:36:11;;;;;;;10.10;7.05;;;6.00;99.90;;;;;;5075262;28;20426;-59
2022/03/07 09:38:37;;;;;;;10.90;6.78;;;5.90;99.90;;;;;;5074973;28;20028;-59
2022/03/07 09:41:04;;;;;;;11.27;6.65;;;5.80;99.90;;;;;;5075162;28;20067;-60
2022/03/07 09:43:30;;;;;;;11.40;6.43;;;5.80;99.90;;;;;;5075020;28;20149;-59
2022/03/07 09:45:56;;;;;;;8.25;6.05;;;5.80;99.90;;;;;;5075489;28;20411;-59
2022/03/07 09:48:23;;;;;;;10.88;7.40;;;5.90;99.90;;;;;;5075261;28;20032;-59
2022/03/07 09:50:49;;;;;;;10.18;7.70;;;6.20;99.90;;;;;;5074729;28;20388;-60
2022/03/07 09:53:16;;;;;;;11.38;7.90;;;6.40;99.90;;;;;;5074717;28;20319;-60
2022/03/07 09:55:42;;;;;;;11.07;7.13;;;6.40;99.90;;;;;;5075076;28;20047;-59
2022/03/07 09:58:08;;;;;;;13.00;6.78;;;6.50;99.90;;;;;;5074838;28;20048;-59
2022/03/07 10:00:35;;;;;;;11.80;5.88;;;6.60;99.90;;;;;;5074614;28;20033;-60
2022/03/07 10:03:05;;;;;;;8.25;4.30;;;6.70;99.90;;;;;;5074611;28;20124;-59
2022/03/07 10:05:36;;;;;;;6.30;4.50;;;6.90;99.90;;;;;;5074962;28;20360;-60
2022/03/07 10:08:03;;;;;;;7.57;4.57;;;6.90;99.90;;;;;;5073578;28;20032;-59
2022/03/07 10:10:31;;;;;;;7.97;4.50;;;7.00;99.90;;;;;;5058809;28;20041;-60
2022/03/07 10:12:57;;;;;;;9.82;5.20;;;7.10;99.90;;;;;;5054564;28;20041;-60
2022/03/07 10:15:23;;;;;;;7.05;4.97;;;7.20;99.90;;;;;;5054791;28;20041;-59
2022/03/07 10:17:51;;;;;;;8.43;5.03;;;7.20;99.90;;;;;;5053462;28;20044;-59
2022/03/07 10:20:19;;;;;;;7.53;4.88;;;7.30;99.90;;;;;;5062743;28;20375;-59
2022/03/07 10:22:51;;;;;;;6.88;4.82;;;7.20;99.90;;;;;;5074240;28;20048;-60
2022/03/07 10:25:23;;;;;;;7.32;4.00;;;7.10;99.90;;;;;;5073334;28;20084;-60
2022/03/07 10:27:50;;;;;;;7.07;4.75;;;7.20;99.90;;;;;;5074679;28;20076;-60
2022/03/07 10:30:19;;;;;;;7.18;4.50;;;7.40;99.90;;;;;;5073713;28;20115;-59
2022/03/07 10:32:55;;;;;;;7.68;4.97;;;7.50;99.90;;;;;;5074224;28;20139;-60
2022/03/07 10:35:35;;;;;;;8.70;4.97;;;7.50;99.90;;;;;;5074272;28;20071;-60
2022/03/07 10:38:08;;;;;;;8.07;4.20;;;7.60;99.90;;;;;;5061509;28;20045;-60
2022/03/07 10:40:35;;;;;;;9.02;4.10;;;7.60;99.90;;;;;;5065092;28;20044;-61
2022/03/07 10:43:03;;;;;;;6.60;4.00;;;7.80;99.90;;;;;;5073998;28;20040;-60
2022/03/07 10:45:30;;;;;;;8.27;4.30;;;7.80;99.90;;;;;;5074200;28;20048;-60
2022/03/07 10:48:01;;;;;;;7.35;4.35;;;8.00;99.90;;;;;;5074179;28;20036;-61
2022/03/07 10:50:28;;;;;;;7.40;4.55;;;7.90;99.90;;;;;;5074110;28;20036;-60
2022/03/07 10:53:00;;;;;;;7.68;4.35;;;7.80;99.90;;;;;;5073920;28;20048;-61
2022/03/07 10:55:27;;;;;;;6.47;3.95;;;7.70;99.90;;;;;;5073119;28;20115;-61
2022/03/07 10:58:13;;;;;;;7.10;3.97;;;7.70;99.90;;;;;;5074142;28;20079;-60
2022/03/07 11:00:48;;;;;;;7.00;4.00;;;7.80;99.90;;;;;;5073731;28;20049;-60
2022/03/07 11:03:26;;;;;;;6.63;3.60;;;7.70;99.90;;;;;;5073637;28;20036;-63
2022/03/07 11:05:52;;;;;;;7.65;3.88;;;7.80;99.90;;;;;;5074099;28;20040;-60
2022/03/07 11:08:20;;;;;;;7.90;3.78;;;7.80;99.90;;;;;;5072943;28;20086;-60
2022/03/07 11:10:52;;;;;;;7.60;4.25;;;7.80;99.90;;;;;;5069879;28;20061;-61
2022/03/07 11:13:26;;;;;;;9.27;3.85;;;8.00;99.90;;;;;;5070933;28;20048;-60
2022/03/07 11:15:55;;;;;;;9.35;3.85;;;8.10;99.90;;;;;;5055353;28;20067;-60
2022/03/07 11:18:26;;;;;;;6.03;3.55;;;8.30;99.90;;;;;;5070088;28;20029;-60
2022/03/07 11:20:54;;;;;;;5.60;3.60;;;8.60;99.90;;;;;;5071522;28;20132;-60
2022/03/07 11:23:23;;;;;;;7.07;4.25;;;8.90;99.90;;;;;;5072900;28;20131;-61
2022/03/07 11:25:53;;;;;;;6.25;3.88;;;8.80;99.90;;;;;;5073361;28;20357;-60
2022/03/07 11:28:22;;;;;;;6.65;4.07;;;9.00;99.90;;;;;;5066829;28;20697;-61
2022/03/07 11:30:48;;;;;;;11.50;4.00;;;8.90;99.90;;;;;;5065610;28;20412;-60
2022/03/07 11:33:17;;;;;;;41.65;6.03;;;8.80;99.90;;;;;;5072979;28;20045;-60
2022/03/07 11:35:48;;;;;;;11.27;3.88;;;8.70;99.90;;;;;;5073613;28;20037;-60
2022/03/07 11:38:18;;;;;;;4.53;2.75;;;8.80;99.90;;;;;;5073668;28;20123;-60
2022/03/07 11:41:02;;;;;;;8.80;3.50;;;8.80;99.90;;;;;;5073854;28;20044;-60
2022/03/07 11:43:31;;;;;;;7.72;2.92;;;9.10;99.90;;;;;;5077272;28;20056;-60
2022/03/07 11:45:58;;;;;;;6.35;3.33;;;9.20;99.90;;;;;;5077672;28;20036;-60
2022/03/07 11:48:25;;;;;;;10.63;3.58;;;8.80;99.90;;;;;;5077623;28;20040;-59
2022/03/07 11:50:51;;;;;;;6.15;3.80;;;8.70;99.90;;;;;;5077164;28;20052;-60
2022/03/07 11:53:19;;;;;;;6.57;3.20;;;8.40;99.90;;;;;;5077225;28;20037;-60
2022/03/07 11:55:48;;;;;;;7.72;3.33;;;8.40;99.90;;;;;;5077406;28;20119;-60
2022/03/07 11:58:14;;;;;;;5.43;3.03;;;8.60;99.90;;;;;;5077345;28;20045;-61
2022/03/07 12:00:40;;;;;;;6.90;3.30;;;8.90;99.90;;;;;;5069404;28;20082;-60
2022/03/07 12:03:32;;;;;;;4.07;2.80;;;9.10;99.90;;;;;;5055171;28;20138;-60
2022/03/07 12:06:04;;;;;;;5.43;2.90;;;9.10;99.90;;;;;;5055602;28;20040;-61
2022/03/07 12:08:30;;;;;;;6.75;3.00;;;9.40;99.90;;;;;;5055515;28;20043;-60
2022/03/07 12:11:02;;;;;;;4.95;2.75;;;9.50;99.90;;;;;;5056391;28;20369;-60
2022/03/07 12:13:29;;;;;;;6.05;3.33;;;9.50;99.90;;;;;;5055181;28;20124;-61
2022/03/07 12:15:57;;;;;;;6.47;3.20;;;9.40;99.90;;;;;;5055858;28;20119;-60
2022/03/07 12:18:24;;;;;;;5.40;3.20;;;9.40;99.90;;;;;;5055517;28;20051;-60
2022/03/07 12:21:01;;;;;;;7.10;3.50;;;9.30;99.90;;;;;;5055563;28;20404;-60
2022/03/07 12:23:29;;;;;;;7.55;3.50;;;9.40;99.90;;;;;;5054772;28;20037;-60
2022/03/07 12:26:01;;;;;;;5.50;3.10;;;9.60;99.90;;;;;;5056541;28;20041;-60
2022/03/07 12:28:35;;;;;;;6.95;3.35;;;9.40;99.90;;;;;;5074990;28;20194;-60
2022/03/07 12:31:02;;;;;;;4.93;2.80;;;9.50;99.90;;;;;;5076313;28;20037;-59
2022/03/07 12:33:28;;;;;;;5.43;2.85;;;9.40;99.90;;;;;;5076556;28;20361;-60
2022/03/07 12:36:01;;;;;;;5.05;2.60;;;9.20;99.90;;;;;;5076689;28;20036;-59
2022/03/07 12:38:27;;;;;;;5.05;2.70;;;9.20;99.90;;;;;;5076372;28;20377;-60
2022/03/07 12:40:54;;;;;;;4.68;2.50;;;9.10;99.90;;;;;;5076090;28;20040;-60
2022/03/07 12:43:20;;;;;;;4.75;2.63;;;9.10;99.90;;;;;;5076173;28;20137;-60
2022/03/07 12:45:47;;;;;;;3.78;2.20;;;9.20;99.90;;;;;;5076433;28;20071;-60